Weather at Katrineholm Airfield

Public forecast

Using degrees Celsius for public forecast. Weather courtesy of forecast.io.

Closest aviation weather report (METAR) to Katrineholm Airfield

Closest report is Stockholm Skavsta Airport, 25.6 nm (47.5 km) ESE. Retrieved 2021/10/26 04:20 UTC (2 minutes ago):

ESKN 260420Z 19006KT 9999 FEW009 BKN016 07/06 Q1009

Closest aviation forecast (TAF) to Katrineholm Airfield

Forecast is more than 6 hours old.

Closest forecast is Stockholm Skavsta Airport, 25.6 nm (47.5 km) ESE. Retrieved 2021/10/25 18:00 UTC (10 hours ago):

TAF ESKN 251730Z 2518/2618 20006KT CAVOK TEMPO 2601/2608 2500 -RADZ BR BKN004 PROB40 2608/2613 BKN009